sensor_id;sensor_type;location;lat;lon;timestamp;pressure;altitude;pressure_sealevel;temperature;humidity
74982;BME280;63532;50.766;18.944;2023-04-08T13:08:37;99253.88;;;9.11;63.56
74982;BME280;63532;50.766;18.944;2023-04-08T13:11:43;99238.09;;;8.98;63.81
74982;BME280;63532;50.766;18.944;2023-04-08T13:14:47;99241.22;;;9.03;64.47
74982;BME280;63532;50.766;18.944;2023-04-08T13:17:57;99240.31;;;9.12;64.64
74982;BME280;63532;50.766;18.944;2023-04-08T13:21:06;99243.44;;;9.17;63.85
74982;BME280;63532;50.766;18.944;2023-04-08T13:24:16;99235.53;;;9.16;64.26
74982;BME280;63532;50.766;18.944;2023-04-08T13:27:21;99238.63;;;9.11;63.70
74982;BME280;63532;50.766;18.944;2023-04-08T13:30:26;99228.75;;;9.12;64.22
74982;BME280;63532;50.766;18.944;2023-04-08T13:33:30;99225.09;;;9.13;64.05
74982;BME280;63532;50.766;18.944;2023-04-08T13:36:36;99236.66;;;9.23;63.56
74982;BME280;63532;50.766;18.944;2023-04-08T13:39:46;99234.41;;;9.18;63.17
74982;BME280;63532;50.766;18.944;2023-04-08T13:42:51;99221.16;;;9.17;64.98
74982;BME280;63532;50.766;18.944;2023-04-08T13:45:56;99222.84;;;9.18;64.57
74982;BME280;63532;50.766;18.944;2023-04-08T13:49:06;99220.56;;;9.23;64.82
74982;BME280;63532;50.766;18.944;2023-04-08T13:52:11;99228.31;;;9.26;64.58
74982;BME280;63532;50.766;18.944;2023-04-08T13:55:22;99228.88;;;9.30;64.54
74982;BME280;63532;50.766;18.944;2023-04-08T13:58:27;99223.34;;;9.31;65.21
74982;BME280;63532;50.766;18.944;2023-04-08T14:01:32;99231.56;;;9.30;64.96
74982;BME280;63532;50.766;18.944;2023-04-08T14:04:37;99231.16;;;9.24;64.81
74982;BME280;63532;50.766;18.944;2023-04-08T14:07:47;99228.47;;;9.15;64.05
74982;BME280;63532;50.766;18.944;2023-04-08T14:10:54;99234.44;;;9.09;65.33
74982;BME280;63532;50.766;18.944;2023-04-08T14:14:00;99220.72;;;9.12;65.49
74982;BME280;63532;50.766;18.944;2023-04-08T14:17:05;99221.84;;;9.19;65.52
74982;BME280;63532;50.766;18.944;2023-04-08T14:20:14;99222.56;;;9.21;66.01
74982;BME280;63532;50.766;18.944;2023-04-08T14:23:18;99216.75;;;9.25;65.92
74982;BME280;63532;50.766;18.944;2023-04-08T14:26:24;99211.84;;;9.21;65.66
74982;BME280;63532;50.766;18.944;2023-04-08T14:29:29;99214.66;;;9.10;63.18
74982;BME280;63532;50.766;18.944;2023-04-08T14:32:34;99210.47;;;8.98;65.03
74982;BME280;63532;50.766;18.944;2023-04-08T14:35:38;99211.03;;;8.91;64.99
74982;BME280;63532;50.766;18.944;2023-04-08T14:38:43;99223.72;;;8.99;65.57
74982;BME280;63532;50.766;18.944;2023-04-08T14:41:48;99211.59;;;9.05;65.38
74982;BME280;63532;50.766;18.944;2023-04-08T14:44:53;99215.97;;;9.06;65.67
74982;BME280;63532;50.766;18.944;2023-04-08T14:47:58;99221.88;;;9.00;65.22
74982;BME280;63532;50.766;18.944;2023-04-08T14:51:03;99214.84;;;8.89;65.37
74982;BME280;63532;50.766;18.944;2023-04-08T14:54:12;99216.69;;;8.88;65.83
74982;BME280;63532;50.766;18.944;2023-04-08T14:57:20;99212.16;;;8.89;65.76
74982;BME280;63532;50.766;18.944;2023-04-08T15:00:25;99211.63;;;8.85;66.06
74982;BME280;63532;50.766;18.944;2023-04-08T15:03:34;99214.16;;;8.77;65.88
74982;BME280;63532;50.766;18.944;2023-04-08T15:06:39;99218.13;;;8.73;66.31
74982;BME280;63532;50.766;18.944;2023-04-08T15:09:46;99215.16;;;8.67;66.33
74982;BME280;63532;50.766;18.944;2023-04-08T15:12:52;99204.31;;;8.58;66.02
74982;BME280;63532;50.766;18.944;2023-04-08T15:15:57;99216.16;;;8.56;66.71
74982;BME280;63532;50.766;18.944;2023-04-08T15:19:01;99221.91;;;8.51;66.43
74982;BME280;63532;50.766;18.944;2023-04-08T15:22:06;99226.00;;;8.46;66.88
74982;BME280;63532;50.766;18.944;2023-04-08T15:25:11;99224.75;;;8.40;66.93
74982;BME280;63532;50.766;18.944;2023-04-08T15:28:21;99235.88;;;8.36;67.37
74982;BME280;63532;50.766;18.944;2023-04-08T15:31:25;99240.88;;;8.29;67.67
74982;BME280;63532;50.766;18.944;2023-04-08T15:34:30;99241.16;;;8.16;68.81
74982;BME280;63532;50.766;18.944;2023-04-08T15:37:35;99244.91;;;8.04;68.83
74982;BME280;63532;50.766;18.944;2023-04-08T15:40:41;99250.00;;;7.98;69.03
74982;BME280;63532;50.766;18.944;2023-04-08T15:44:03;99265.97;;;7.78;70.34
74982;BME280;63532;50.766;18.944;2023-04-08T15:51:07;99263.25;;;7.17;74.36
74982;BME280;63532;50.766;18.944;2023-04-08T15:54:28;99255.66;;;6.92;72.38
74982;BME280;63532;50.766;18.944;2023-04-08T15:57:42;99259.69;;;6.86;72.57
74982;BME280;63532;50.766;18.944;2023-04-08T16:00:51;99265.50;;;6.92;72.48
74982;BME280;63532;50.766;18.944;2023-04-08T16:03:57;99259.69;;;6.86;74.29
74982;BME280;63532;50.766;18.944;2023-04-08T16:07:03;99257.16;;;6.85;74.24
74982;BME280;63532;50.766;18.944;2023-04-08T16:10:13;99253.03;;;6.81;73.55
74982;BME280;63532;50.766;18.944;2023-04-08T16:13:18;99258.28;;;6.71;73.61
74982;BME280;63532;50.766;18.944;2023-04-08T16:16:24;99263.50;;;6.73;73.71
74982;BME280;63532;50.766;18.944;2023-04-08T16:19:33;99260.97;;;6.71;73.41
74982;BME280;63532;50.766;18.944;2023-04-08T16:22:38;99272.16;;;6.65;73.49
74982;BME280;63532;50.766;18.944;2023-04-08T16:25:43;99275.81;;;6.64;73.49
74982;BME280;63532;50.766;18.944;2023-04-08T16:28:48;99269.03;;;6.60;73.48
74982;BME280;63532;50.766;18.944;2023-04-08T16:31:54;99277.75;;;6.62;74.45
74982;BME280;63532;50.766;18.944;2023-04-08T16:34:59;99277.75;;;6.62;74.88
74982;BME280;63532;50.766;18.944;2023-04-08T16:38:03;99278.72;;;6.61;74.29
74982;BME280;63532;50.766;18.944;2023-04-08T16:41:11;99273.75;;;6.57;74.75
74982;BME280;63532;50.766;18.944;2023-04-08T16:44:15;99269.78;;;6.51;74.05
74982;BME280;63532;50.766;18.944;2023-04-08T16:47:22;99266.66;;;6.46;74.49
74982;BME280;63532;50.766;18.944;2023-04-08T16:50:26;99276.38;;;6.36;74.29
74982;BME280;63532;50.766;18.944;2023-04-08T16:53:32;99263.66;;;6.28;74.20
74982;BME280;63532;50.766;18.944;2023-04-08T16:56:42;99275.69;;;6.23;74.35
74982;BME280;63532;50.766;18.944;2023-04-08T16:59:48;99272.69;;;6.16;74.79
74982;BME280;63532;50.766;18.944;2023-04-08T17:02:55;99273.66;;;6.15;74.97
74982;BME280;63532;50.766;18.944;2023-04-08T17:06:08;99279.59;;;6.18;75.32
74982;BME280;63532;50.766;18.944;2023-04-08T17:09:16;99277.88;;;6.17;75.10
74982;BME280;63532;50.766;18.944;2023-04-08T17:12:20;99269.66;;;6.09;74.79
74982;BME280;63532;50.766;18.944;2023-04-08T17:15:29;99284.69;;;6.10;75.27
74982;BME280;63532;50.766;18.944;2023-04-08T17:18:36;99283.09;;;6.08;75.41
74982;BME280;63532;50.766;18.944;2023-04-08T17:21:40;99290.97;;;6.09;75.36
74982;BME280;63532;50.766;18.944;2023-04-08T17:24:50;99285.06;;;6.06;75.26
74982;BME280;63532;50.766;18.944;2023-04-08T17:27:55;99290.66;;;6.03;75.26
74982;BME280;63532;50.766;18.944;2023-04-08T17:31:00;99293.44;;;6.01;76.00
74982;BME280;63532;50.766;18.944;2023-04-08T17:34:07;99305.81;;;6.02;75.73
74982;BME280;63532;50.766;18.944;2023-04-08T17:37:12;99306.78;;;6.01;75.95
